Aérodrome :
LOGIN :

S'inscrire | Disclaimer

   EN    FR    IT 

 










Légende :    VFR   VFR Marginal   IFR   IFR Intensif   IFR Très Intensif
Visi : 
Plafond : 
>= 8 km
>= 3000ft
5 à 8 km
1000 à 3000 ft
1500m à 5 km
500 à 1000 ft
800 à 1500m
200 à 500 ft
< 800m
< 200 ft
Symboles :   Orages  Brouillard  Fortes neiges  Fortes précipitations  Vent > 20 kt
SIGMETs :   Divers  Orages  Givrage  Turbulence  Onde Orograph.  Cendres Volcan.







- Altitude de l'aérodrome : 106 ft
- Code IATA : NRN


EDLV - Weeze

DERNIER METAR :
  • 241420Z 32006KT 260V020 9999 BKN030 18/11 Q1023

METARs EXPIRÉS :
  • 241350Z VRB06KT 9999 BKN028 18/11 Q1023
  • 241320Z 31005KT 260V360 9999 BKN028 18/10 Q1023
  • 241250Z 30006KT 250V360 9999 BKN028 18/11 Q1023
  • 241220Z VRB05KT 9999 BKN035 18/11 Q1023
  • 241150Z 30006KT 220V020 9999 BKN035 18/10 Q1024

TAF TAF EDLV
Valide du 24 à 12h jusqu'au 25 à 12h UTC


241100Z 2412/2512 32005KT 9999 BKN025
BECMG 2418/2421 BKN012
TEMPO 2502/2506 BKN007
BECMG 2506/2509 SCT030
Pas de NOTAMs connus pour ce terrain.



MET'MAP, la Météo Aéronautique d'un coup d'oeil ! - Copyright ORBIFLY Décembre 2007 - Disclaimer

ORBIFLY MET'MAP TEAM :

Programmation & Développement : Alexandra Zaïnal
Conception & Développement : Baudouin d'Aumeries
Co-Programmation & Développement : Marc-Olivier Méhu
Soutien technique & logistique : Manuel Goepfert

Contact : metmap@orbifly.com




SOURCES & CREDITS :

   NOAA